Time;durP1;ratioP1;P1;durP2;ratioP2;P2;SDS_P1;SDS_P2;PMS_P1;PMS_P2;Temp;Humidity;BMP_temperature;BMP_pressure;BME280_temperature;BME280_humidity;BME280_pressure;Samples;Min_cycle;Max_cycle;Signal;HPM_P1;HPM_P2
2022/12/03 00:00:43;;;;;;;9.60;8.60;;;2.50;93.10;;;;;;5019207;28;20437;-76
2022/12/03 00:03:10;;;;;;;9.47;8.60;;;2.50;93.00;;;;;;5024395;28;20494;-76
2022/12/03 00:05:36;;;;;;;9.90;8.77;;;2.60;92.90;;;;;;5022124;28;20549;-76
2022/12/03 00:08:03;;;;;;;9.70;8.80;;;2.60;93.00;;;;;;5024604;28;20528;-76
2022/12/03 00:10:30;;;;;;;9.88;8.98;;;2.60;93.00;;;;;;5025167;28;21069;-75
2022/12/03 00:12:58;;;;;;;9.40;8.50;;;2.60;93.00;;;;;;5020128;28;20435;-75
2022/12/03 00:15:25;;;;;;;8.82;8.02;;;2.60;92.90;;;;;;5020891;28;20468;-76
2022/12/03 00:17:52;;;;;;;9.32;8.43;;;2.60;92.80;;;;;;5025612;28;20450;-76
2022/12/03 00:20:22;;;;;;;9.63;8.63;;;2.70;92.70;;;;;;5020228;28;20442;-76
2022/12/03 00:22:49;;;;;;;9.15;8.25;;;2.60;92.50;;;;;;5013141;28;20440;-75
2022/12/03 00:25:17;;;;;;;10.32;9.20;;;2.70;92.50;;;;;;5026169;28;20453;-76
2022/12/03 00:27:44;;;;;;;9.25;8.38;;;2.70;92.50;;;;;;5027141;28;20431;-76
2022/12/03 00:30:13;;;;;;;9.60;8.60;;;2.70;92.20;;;;;;5026836;28;20431;-75
2022/12/03 00:32:40;;;;;;;9.10;8.20;;;2.80;91.70;;;;;;5021037;28;20545;-76
2022/12/03 00:35:07;;;;;;;9.30;8.40;;;2.80;91.80;;;;;;5047356;22;21238;-70
2022/12/03 00:37:34;;;;;;;9.50;8.60;;;2.80;91.90;;;;;;5035139;28;20415;-70
2022/12/03 00:40:01;;;;;;;8.40;7.60;;;2.80;91.70;;;;;;5031045;28;20510;-70
2022/12/03 00:42:28;;;;;;;9.63;8.73;;;2.80;91.70;;;;;;5025085;28;20433;-70
2022/12/03 00:44:55;;;;;;;8.57;7.68;;;2.80;91.50;;;;;;5018548;28;20425;-69
2022/12/03 00:47:23;;;;;;;8.82;7.95;;;2.80;91.30;;;;;;5017754;28;20436;-70
2022/12/03 00:49:50;;;;;;;8.82;7.93;;;2.80;91.50;;;;;;5014318;28;20457;-70
2022/12/03 00:52:17;;;;;;;9.32;8.43;;;2.80;91.30;;;;;;5016957;28;20447;-69
2022/12/03 00:54:44;;;;;;;8.57;7.78;;;2.80;91.50;;;;;;5007481;28;20442;-70
2022/12/03 00:57:11;;;;;;;8.85;8.05;;;2.80;91.60;;;;;;5018552;28;20431;-70
2022/12/03 00:59:37;;;;;;;9.02;8.13;;;2.80;91.50;;;;;;5009973;28;20507;-68
2022/12/03 01:02:04;;;;;;;8.10;7.30;;;2.80;91.40;;;;;;5008274;28;20434;-70
2022/12/03 01:04:32;;;;;;;8.60;7.70;;;2.90;91.00;;;;;;5014867;28;20432;-69
2022/12/03 01:06:59;;;;;;;8.23;7.43;;;2.90;91.00;;;;;;5010250;28;21042;-70
2022/12/03 01:09:26;;;;;;;8.68;7.78;;;2.90;91.20;;;;;;5005212;28;20450;-72
2022/12/03 01:11:53;;;;;;;8.30;7.50;;;2.90;91.30;;;;;;5014638;28;20436;-69
2022/12/03 01:14:20;;;;;;;8.35;7.55;;;2.90;91.10;;;;;;5013432;28;20459;-70
2022/12/03 01:16:48;;;;;;;8.20;7.40;;;2.90;91.10;;;;;;5002672;28;20442;-71
2022/12/03 01:19:15;;;;;;;7.97;7.10;;;2.90;91.10;;;;;;5005887;28;21260;-71
2022/12/03 01:21:44;;;;;;;8.23;7.45;;;2.90;91.10;;;;;;5005026;28;20428;-71
2022/12/03 01:24:11;;;;;;;8.10;7.30;;;2.90;91.10;;;;;;5004631;28;20807;-71
2022/12/03 01:26:38;;;;;;;7.65;6.95;;;2.90;91.00;;;;;;5023256;28;20431;-71
2022/12/03 01:29:05;;;;;;;8.20;7.50;;;2.90;91.00;;;;;;5008087;28;20436;-72
2022/12/03 01:34:16;;;;;;;8.50;7.60;;;3.00;91.20;;;;;;5003205;28;20486;-70
2022/12/03 01:36:44;;;;;;;8.00;7.20;;;3.00;91.10;;;;;;5008378;28;20440;-70
2022/12/03 01:39:11;;;;;;;7.55;6.85;;;3.00;90.80;;;;;;5020290;28;20438;-69
2022/12/03 01:41:38;;;;;;;8.77;7.97;;;3.10;90.60;;;;;;5020440;28;20427;-70
2022/12/03 01:44:14;;;;;;;8.60;7.80;;;3.00;90.70;;;;;;5008133;28;20440;-70
2022/12/03 01:46:42;;;;;;;7.75;7.05;;;3.00;90.70;;;;;;5011971;28;20532;-69
2022/12/03 01:49:14;;;;;;;7.63;6.93;;;3.00;90.80;;;;;;5006295;28;20433;-70
2022/12/03 01:51:41;;;;;;;7.28;6.68;;;3.00;90.30;;;;;;5008182;28;22313;-71
2022/12/03 01:54:16;;;;;;;7.05;6.45;;;3.10;90.00;;;;;;5011312;28;20439;-72
2022/12/03 01:56:43;;;;;;;6.90;6.30;;;3.00;90.20;;;;;;5006034;28;20430;-70
2022/12/03 01:59:15;;;;;;;8.23;7.25;;;3.00;90.50;;;;;;5014983;28;20807;-70
2022/12/03 02:01:41;;;;;;;7.63;6.93;;;3.00;90.60;;;;;;5014440;28;20442;-69
2022/12/03 02:04:12;;;;;;;7.53;6.82;;;3.00;90.50;;;;;;5006730;28;20886;-70
2022/12/03 02:06:39;;;;;;;7.40;6.70;;;3.00;90.60;;;;;;5013546;28;20422;-69
2022/12/03 02:09:07;;;;;;;7.47;6.73;;;3.00;90.50;;;;;;5009788;28;20519;-69
2022/12/03 02:11:38;;;;;;;8.02;7.22;;;3.00;90.50;;;;;;5012325;28;20460;-69
2022/12/03 02:14:08;;;;;;;7.78;6.95;;;3.00;90.70;;;;;;5003404;28;20503;-68
2022/12/03 02:16:36;;;;;;;7.10;6.40;;;3.00;90.90;;;;;;5007358;28;20437;-69
2022/12/03 02:19:08;;;;;;;7.87;7.10;;;3.00;91.00;;;;;;5003290;28;20962;-70
2022/12/03 02:21:45;;;;;;;7.50;6.90;;;3.00;90.80;;;;;;5009244;28;20468;-69
2022/12/03 02:24:18;;;;;;;7.20;6.50;;;3.00;90.80;;;;;;4998957;28;20521;-69
2022/12/03 02:26:46;;;;;;;8.10;7.40;;;3.00;90.70;;;;;;5007469;28;20440;-71
2022/12/03 02:29:13;;;;;;;7.50;6.80;;;3.00;90.60;;;;;;5004548;28;20439;-71
2022/12/03 02:31:39;;;;;;;7.85;7.00;;;3.00;90.60;;;;;;5011463;28;20447;-69
2022/12/03 02:34:07;;;;;;;8.15;7.32;;;3.00;90.80;;;;;;5004746;28;20437;-69
2022/12/03 02:36:34;;;;;;;8.70;8.00;;;3.00;90.80;;;;;;5009269;28;20480;-68
2022/12/03 02:39:02;;;;;;;8.70;7.90;;;3.00;90.90;;;;;;5006889;28;20440;-69
2022/12/03 02:44:15;;;;;;;8.10;7.40;;;3.10;91.00;;;;;;4998952;28;20432;-70
2022/12/03 02:46:41;;;;;;;8.00;7.30;;;3.10;91.00;;;;;;5003604;28;20450;-68
2022/12/03 02:49:08;;;;;;;8.50;7.70;;;3.10;90.90;;;;;;5003798;28;20437;-69
2022/12/03 02:51:35;;;;;;;8.30;7.50;;;3.10;90.90;;;;;;5003881;28;20440;-69
2022/12/03 02:54:03;;;;;;;8.40;7.65;;;3.10;90.70;;;;;;5002356;28;20432;-69
2022/12/03 02:56:32;;;;;;;8.57;7.78;;;3.10;90.80;;;;;;5005124;28;20516;-71
2022/12/03 02:59:01;;;;;;;7.80;7.00;;;3.10;90.90;;;;;;5007902;28;20443;-68
2022/12/03 03:01:29;;;;;;;8.52;7.72;;;3.10;91.00;;;;;;5011030;28;20434;-68
2022/12/03 03:03:57;;;;;;;8.63;7.83;;;3.10;90.90;;;;;;5004704;28;20440;-70
2022/12/03 03:06:24;;;;;;;7.82;7.03;;;3.10;91.10;;;;;;5005153;28;20444;-70
2022/12/03 03:08:52;;;;;;;8.00;7.30;;;3.10;90.90;;;;;;5007043;28;20468;-68
2022/12/03 03:11:19;;;;;;;8.35;7.50;;;3.10;90.80;;;;;;4999226;28;20539;-68
2022/12/03 03:13:46;;;;;;;9.05;8.25;;;3.10;91.00;;;;;;5017829;28;20916;-70
2022/12/03 03:16:12;;;;;;;8.80;7.90;;;3.10;91.00;;;;;;4999912;28;20561;-70
2022/12/03 03:18:41;;;;;;;8.60;7.80;;;3.10;90.90;;;;;;4998871;28;20447;-69
2022/12/03 03:21:08;;;;;;;9.07;8.20;;;3.10;90.60;;;;;;5005366;28;20437;-70
2022/12/03 03:23:34;;;;;;;8.68;7.88;;;3.10;90.70;;;;;;5008654;28;20443;-68
2022/12/03 03:26:04;;;;;;;8.00;7.20;;;3.10;90.80;;;;;;5005064;28;20437;-70
2022/12/03 03:28:32;;;;;;;8.90;8.00;;;3.10;90.90;;;;;;5013368;28;20441;-70
2022/12/03 03:31:02;;;;;;;8.75;7.95;;;3.10;90.90;;;;;;5007395;28;20444;-70
2022/12/03 03:33:29;;;;;;;8.48;7.68;;;3.10;90.50;;;;;;5008420;28;20504;-68
2022/12/03 03:35:59;;;;;;;8.90;8.00;;;3.10;90.50;;;;;;5019588;28;20437;-69
2022/12/03 03:38:28;;;;;;;8.80;7.90;;;3.10;90.70;;;;;;5019415;28;20443;-67
2022/12/03 03:40:56;;;;;;;9.00;8.10;;;3.10;90.80;;;;;;5006409;28;20438;-69
2022/12/03 03:43:23;;;;;;;9.00;8.10;;;3.10;90.70;;;;;;5018972;28;22169;-69
2022/12/03 03:45:51;;;;;;;9.65;8.75;;;3.10;90.30;;;;;;5010706;28;20429;-69
2022/12/03 03:48:18;;;;;;;10.07;9.07;;;3.00;90.50;;;;;;5006704;28;20966;-70
2022/12/03 03:50:45;;;;;;;8.80;8.00;;;3.00;90.70;;;;;;5018449;28;20965;-69
2022/12/03 03:53:14;;;;;;;10.23;9.23;;;2.90;90.90;;;;;;4996459;28;20434;-70
2022/12/03 03:55:41;;;;;;;9.85;8.95;;;2.90;91.00;;;;;;5008703;28;20443;-69
2022/12/03 03:58:08;;;;;;;9.70;8.60;;;2.80;91.10;;;;;;5011548;28;20471;-70
2022/12/03 04:00:35;;;;;;;10.25;8.80;;;2.80;91.30;;;;;;5014625;28;20441;-70
2022/12/03 04:03:03;;;;;;;9.90;8.90;;;2.80;91.50;;;;;;5009848;28;21063;-69
2022/12/03 04:05:30;;;;;;;10.10;9.10;;;2.80;91.50;;;;;;5007371;28;20791;-70
2022/12/03 04:07:57;;;;;;;9.85;8.85;;;2.80;91.10;;;;;;5006534;28;20825;-70
2022/12/03 04:13:10;;;;;;;10.20;9.10;;;2.80;91.10;;;;;;5021588;28;20433;-68
2022/12/03 04:15:36;;;;;;;10.47;9.47;;;2.80;91.20;;;;;;5006949;28;20428;-69
2022/12/03 04:20:48;;;;;;;10.63;9.52;;;2.80;91.50;;;;;;5008256;28;20788;-68
2022/12/03 04:23:13;;;;;;;9.50;8.40;;;2.90;91.60;;;;;;5011448;28;20839;-68
2022/12/03 04:36:38;;;;;;;10.57;9.48;;;2.90;91.20;;;;;;5013006;28;20407;-70
2022/12/03 04:39:05;;;;;;;11.18;9.85;;;2.90;90.80;;;;;;5011976;28;20430;-70
2022/12/03 04:41:33;;;;;;;10.07;9.07;;;2.90;90.80;;;;;;5017004;28;20446;-70
2022/12/03 04:46:44;;;;;;;9.98;8.90;;;2.90;90.60;;;;;;5017156;28;20485;-70
2022/12/03 04:49:11;;;;;;;10.85;9.75;;;2.80;90.50;;;;;;5016541;28;20475;-70
2022/12/03 04:51:38;;;;;;;10.20;9.20;;;2.80;90.80;;;;;;5017134;28;20461;-70
2022/12/03 04:54:05;;;;;;;11.95;10.60;;;2.80;90.80;;;;;;5008554;28;20437;-69
2022/12/03 04:56:33;;;;;;;10.70;9.57;;;2.90;90.80;;;;;;5021424;28;20447;-69
2022/12/03 04:58:59;;;;;;;10.25;9.25;;;2.80;90.80;;;;;;5007331;28;20432;-69
2022/12/03 05:01:26;;;;;;;10.38;9.30;;;2.80;90.80;;;;;;5014388;28;20434;-70
2022/12/03 05:03:53;;;;;;;11.40;9.57;;;2.80;90.70;;;;;;5017834;28;20439;-69
2022/12/03 05:06:20;;;;;;;11.07;9.88;;;2.80;90.90;;;;;;5010572;28;20421;-70
2022/12/03 05:08:46;;;;;;;9.80;8.80;;;2.70;90.80;;;;;;5013796;28;20950;-67
2022/12/03 05:11:14;;;;;;;11.07;9.77;;;2.70;90.90;;;;;;5002188;28;21756;-67
2022/12/03 05:13:42;;;;;;;10.70;9.60;;;2.70;91.10;;;;;;5011846;28;20429;-68
2022/12/03 05:16:10;;;;;;;9.70;8.70;;;2.70;91.30;;;;;;5012923;28;20437;-69
2022/12/03 05:18:36;;;;;;;11.02;9.90;;;2.70;91.30;;;;;;5002996;28;20436;-70
2022/12/03 05:21:03;;;;;;;9.85;8.85;;;2.70;91.50;;;;;;5013529;28;20935;-69
2022/12/03 05:23:30;;;;;;;10.13;9.13;;;2.70;91.50;;;;;;5003271;28;20886;-70
2022/12/03 05:25:57;;;;;;;10.48;9.38;;;2.70;91.50;;;;;;5009546;28;20439;-69
2022/12/03 05:28:24;;;;;;;11.40;9.90;;;2.70;91.40;;;;;;5014263;28;20482;-69
2022/12/03 05:30:52;;;;;;;10.15;9.15;;;2.70;91.10;;;;;;5010513;28;20436;-69
2022/12/03 05:33:19;;;;;;;10.00;9.02;;;2.70;91.20;;;;;;5016930;28;20818;-69
2022/12/03 05:35:46;;;;;;;10.27;9.20;;;2.80;91.20;;;;;;5009410;28;20432;-69
2022/12/03 05:38:14;;;;;;;8.95;8.05;;;2.80;90.80;;;;;;5009307;28;20855;-68
2022/12/03 05:40:41;;;;;;;10.98;9.50;;;2.80;90.40;;;;;;5015569;28;20427;-69
2022/12/03 05:43:07;;;;;;;9.10;8.07;;;2.80;90.40;;;;;;5012696;28;20498;-68
2022/12/03 05:45:36;;;;;;;8.85;7.95;;;2.80;90.20;;;;;;5006003;28;20529;-70
2022/12/03 05:48:06;;;;;;;9.13;8.17;;;2.80;89.60;;;;;;5018135;28;20498;-68
2022/12/03 05:50:35;;;;;;;8.95;8.00;;;2.80;89.20;;;;;;5014232;28;20435;-69
2022/12/03 05:53:02;;;;;;;9.10;8.20;;;2.90;88.00;;;;;;5010622;28;20408;-67
2022/12/03 05:55:28;;;;;;;7.85;7.05;;;2.90;86.90;;;;;;5001721;28;20440;-71
2022/12/03 05:57:55;;;;;;;8.93;8.02;;;2.90;86.60;;;;;;5004894;28;20443;-71
2022/12/03 06:00:25;;;;;;;9.38;8.48;;;2.90;87.10;;;;;;5015004;28;20439;-70
2022/12/03 06:02:52;;;;;;;9.32;8.43;;;2.80;87.70;;;;;;5015897;28;20431;-70
2022/12/03 06:05:21;;;;;;;9.00;8.10;;;2.80;88.20;;;;;;5003041;28;20573;-70
2022/12/03 06:07:49;;;;;;;8.60;7.70;;;2.80;88.20;;;;;;5000985;28;20440;-69
2022/12/03 06:10:18;;;;;;;8.65;7.85;;;2.80;88.30;;;;;;5001838;28;20435;-69
2022/12/03 06:12:44;;;;;;;9.27;8.02;;;2.80;88.40;;;;;;5002936;28;20439;-69
2022/12/03 06:15:12;;;;;;;8.60;7.70;;;2.80;88.50;;;;;;4995959;28;20440;-70
2022/12/03 06:17:39;;;;;;;9.55;8.02;;;2.80;88.50;;;;;;5004075;28;20436;-70
2022/12/03 06:20:08;;;;;;;8.47;7.67;;;2.80;87.80;;;;;;5004665;28;20810;-68
2022/12/03 06:22:36;;;;;;;8.90;8.00;;;2.80;88.10;;;;;;5017412;28;20435;-69
2022/12/03 06:25:03;;;;;;;8.97;8.07;;;2.80;88.40;;;;;;5014523;28;20442;-69
2022/12/03 06:27:30;;;;;;;8.52;7.63;;;2.80;89.00;;;;;;5002021;28;20518;-69
2022/12/03 06:29:57;;;;;;;9.27;8.15;;;2.80;89.40;;;;;;5014315;28;20462;-68
2022/12/03 06:32:23;;;;;;;9.80;8.80;;;2.80;89.50;;;;;;5009227;28;20719;-71
2022/12/03 06:34:50;;;;;;;9.65;8.63;;;2.80;89.90;;;;;;5010645;28;20821;-70
2022/12/03 06:37:17;;;;;;;10.30;9.00;;;2.80;89.70;;;;;;4997700;28;20436;-69
2022/12/03 06:39:45;;;;;;;9.90;8.90;;;2.80;89.80;;;;;;5004466;28;20436;-70
2022/12/03 06:42:12;;;;;;;11.07;9.88;;;2.80;89.50;;;;;;5005451;28;20434;-68
2022/12/03 06:44:39;;;;;;;11.40;10.20;;;2.80;90.00;;;;;;5011555;28;20430;-69
2022/12/03 06:47:05;;;;;;;11.23;10.02;;;2.90;90.10;;;;;;5004031;28;20442;-67
2022/12/03 06:49:32;;;;;;;11.20;10.00;;;2.90;90.10;;;;;;5005214;28;20436;-70
2022/12/03 06:51:59;;;;;;;11.43;10.07;;;2.90;90.10;;;;;;4997507;28;20417;-67
2022/12/03 06:54:25;;;;;;;12.25;9.95;;;2.90;90.50;;;;;;4998233;28;21197;-68
2022/12/03 06:56:53;;;;;;;12.35;11.15;;;2.90;90.70;;;;;;5000421;28;20447;-72
2022/12/03 06:59:20;;;;;;;12.02;10.23;;;2.90;90.90;;;;;;5001693;28;20439;-69
2022/12/03 07:01:47;;;;;;;12.18;10.30;;;2.90;91.10;;;;;;5001480;28;20989;-70
2022/12/03 07:04:14;;;;;;;12.75;10.30;;;2.90;91.00;;;;;;5000584;28;21043;-69
2022/12/03 07:06:40;;;;;;;11.82;10.30;;;2.90;91.20;;;;;;5009292;28;20436;-71
2022/12/03 07:09:07;;;;;;;11.40;10.00;;;2.90;91.20;;;;;;5000424;28;20444;-72
2022/12/03 07:11:39;;;;;;;11.90;9.95;;;2.90;91.20;;;;;;5002735;28;20440;-79
2022/12/03 07:14:09;;;;;;;11.02;9.27;;;2.90;91.30;;;;;;5008165;28;20509;-72
2022/12/03 07:16:37;;;;;;;10.60;9.50;;;3.00;91.40;;;;;;5007737;28;20448;-72
2022/12/03 07:19:05;;;;;;;13.05;9.60;;;2.90;91.40;;;;;;5012815;28;20958;-72
2022/12/03 07:21:32;;;;;;;11.00;9.43;;;2.90;91.30;;;;;;5006820;28;20436;-72
2022/12/03 07:23:58;;;;;;;10.30;9.30;;;2.90;91.10;;;;;;5008471;28;20971;-71
2022/12/03 07:26:25;;;;;;;12.20;8.57;;;2.90;91.20;;;;;;5001137;28;20442;-72
2022/12/03 07:28:52;;;;;;;11.88;9.60;;;3.00;91.10;;;;;;5012342;28;20438;-71
2022/12/03 07:31:20;;;;;;;10.63;8.88;;;2.90;91.00;;;;;;4998453;28;20437;-72
2022/12/03 07:33:47;;;;;;;12.23;9.40;;;2.90;91.00;;;;;;5008257;28;20437;-70
2022/12/03 07:36:13;;;;;;;12.10;10.80;;;2.90;91.10;;;;;;5003876;28;20447;-72
2022/12/03 07:38:40;;;;;;;11.43;10.13;;;3.00;91.10;;;;;;5004633;28;20427;-71
2022/12/03 07:41:07;;;;;;;11.70;9.45;;;3.00;91.20;;;;;;5008634;28;20434;-68
2022/12/03 07:43:34;;;;;;;10.85;9.48;;;3.00;91.20;;;;;;5003650;28;20459;-72
2022/12/03 07:46:01;;;;;;;11.15;9.43;;;3.00;91.10;;;;;;4998599;28;20426;-72
2022/12/03 07:48:29;;;;;;;9.73;8.47;;;3.00;91.10;;;;;;5019147;28;20430;-73
2022/12/03 07:50:55;;;;;;;10.82;9.55;;;3.00;90.90;;;;;;5009054;28;20432;-72
2022/12/03 07:53:22;;;;;;;11.00;9.90;;;3.00;91.10;;;;;;5016448;28;20437;-72
2022/12/03 07:55:49;;;;;;;11.02;9.30;;;3.00;91.00;;;;;;5000085;28;20434;-72
2022/12/03 07:58:16;;;;;;;13.73;10.38;;;3.00;91.10;;;;;;5020569;28;20449;-72
2022/12/03 08:00:43;;;;;;;9.10;8.20;;;3.00;91.10;;;;;;5003030;28;20432;-73
2022/12/03 08:03:09;;;;;;;9.88;8.50;;;3.00;91.00;;;;;;5000877;28;20444;-71
2022/12/03 08:05:37;;;;;;;9.95;8.57;;;3.00;91.00;;;;;;5003515;28;20432;-72
2022/12/03 08:08:04;;;;;;;9.45;8.32;;;3.00;91.00;;;;;;5009500;28;20437;-72
2022/12/03 08:10:31;;;;;;;10.65;8.40;;;3.00;91.20;;;;;;5003057;28;20439;-71
2022/12/03 08:12:59;;;;;;;11.80;9.00;;;3.00;91.10;;;;;;5005795;28;20441;-72
2022/12/03 08:15:29;;;;;;;11.50;9.68;;;3.00;91.00;;;;;;5003179;28;20446;-72
2022/12/03 08:17:58;;;;;;;11.00;8.52;;;3.00;90.90;;;;;;5005981;28;20460;-72
2022/12/03 08:20:28;;;;;;;10.93;9.05;;;3.00;90.80;;;;;;5006131;28;20543;-71
2022/12/03 08:22:57;;;;;;;10.55;8.90;;;3.00;90.70;;;;;;5006758;28;20491;-71
2022/12/03 08:25:27;;;;;;;9.90;8.90;;;3.10;90.30;;;;;;5009031;28;20849;-71
2022/12/03 08:27:57;;;;;;;11.30;8.57;;;3.00;90.30;;;;;;5009409;28;20523;-70
2022/12/03 08:30:23;;;;;;;9.70;8.80;;;3.10;90.30;;;;;;5001268;28;20441;-73
2022/12/03 08:32:51;;;;;;;10.55;8.50;;;3.10;90.30;;;;;;5000430;28;20600;-73
2022/12/03 08:35:22;;;;;;;9.18;8.23;;;3.00;90.20;;;;;;5004834;28;20442;-74
2022/12/03 08:37:55;;;;;;;10.40;8.20;;;3.00;90.30;;;;;;5001691;28;20993;-72
2022/12/03 08:40:32;;;;;;;10.07;8.98;;;3.00;90.20;;;;;;5012226;28;20434;-73
2022/12/03 08:42:58;;;;;;;10.57;9.40;;;3.10;90.40;;;;;;5001637;28;20441;-74
2022/12/03 08:45:38;;;;;;;10.20;8.60;;;3.10;90.60;;;;;;5010585;28;20442;-74
2022/12/03 08:48:23;;;;;;;10.32;8.68;;;3.10;90.40;;;;;;5009676;28;20444;-71
2022/12/03 08:50:50;;;;;;;12.82;9.30;;;3.10;90.40;;;;;;5008000;28;20519;-69
2022/12/03 08:53:29;;;;;;;9.73;8.73;;;3.10;90.30;;;;;;5008295;28;20482;-74
2022/12/03 08:55:59;;;;;;;10.02;8.02;;;3.10;90.20;;;;;;5013228;28;20520;-70
2022/12/03 08:58:36;;;;;;;10.45;9.35;;;3.10;89.20;;;;;;5008346;28;20433;-69
2022/12/03 09:01:16;;;;;;;13.63;8.65;;;3.20;89.30;;;;;;5001223;28;20441;-70
2022/12/03 09:03:49;;;;;;;10.68;8.15;;;3.20;89.80;;;;;;5003117;28;20432;-70
2022/12/03 09:06:16;;;;;;;9.43;8.40;;;3.20;89.20;;;;;;4999930;28;20439;-72
2022/12/03 09:08:43;;;;;;;10.05;8.30;;;3.20;88.90;;;;;;5003592;28;20439;-73
2022/12/03 09:11:11;;;;;;;9.87;8.40;;;3.20;88.60;;;;;;5007013;28;20440;-71
2022/12/03 09:13:38;;;;;;;9.77;8.32;;;3.20;87.80;;;;;;5004636;28;20436;-73
2022/12/03 09:16:05;;;;;;;9.05;8.15;;;3.20;87.60;;;;;;4998854;28;20445;-70
2022/12/03 09:18:32;;;;;;;13.07;9.05;;;3.20;87.90;;;;;;5006459;28;20792;-71
2022/12/03 09:20:59;;;;;;;9.82;8.25;;;3.30;87.60;;;;;;5011057;28;20432;-70
2022/12/03 09:23:26;;;;;;;9.60;8.23;;;3.30;87.70;;;;;;5018058;28;20927;-71
2022/12/03 09:25:53;;;;;;;10.95;8.80;;;3.30;88.10;;;;;;4998150;28;20998;-70
2022/12/03 09:28:21;;;;;;;9.73;8.73;;;3.20;87.90;;;;;;5005630;28;20437;-70
2022/12/03 09:30:47;;;;;;;10.57;9.00;;;3.30;88.00;;;;;;4998407;28;20959;-70
2022/12/03 09:33:14;;;;;;;10.27;8.18;;;3.30;88.10;;;;;;5008559;28;20427;-70
2022/12/03 09:35:41;;;;;;;9.93;8.50;;;3.40;88.20;;;;;;5006368;28;20440;-70
2022/12/03 09:38:08;;;;;;;9.50;8.60;;;3.30;88.40;;;;;;5007041;28;20436;-71
2022/12/03 09:40:35;;;;;;;10.00;8.20;;;3.40;87.50;;;;;;5016858;28;20996;-71
2022/12/03 09:43:01;;;;;;;9.70;8.70;;;3.40;88.00;;;;;;5007019;28;21165;-70
2022/12/03 09:45:29;;;;;;;9.45;8.30;;;3.40;87.60;;;;;;5005647;28;20444;-70
2022/12/03 09:47:56;;;;;;;9.82;8.82;;;3.40;87.50;;;;;;5000897;28;20440;-73
2022/12/03 09:50:26;;;;;;;9.70;8.68;;;3.40;86.70;;;;;;5004867;28;20432;-70
2022/12/03 09:52:54;;;;;;;9.77;8.77;;;3.40;87.00;;;;;;5005404;28;20510;-72
2022/12/03 09:55:24;;;;;;;10.23;9.13;;;3.50;87.40;;;;;;5039564;22;20449;-74
2022/12/03 09:57:52;;;;;;;9.43;8.37;;;3.50;87.40;;;;;;5024440;28;20442;-74
2022/12/03 10:00:22;;;;;;;10.35;8.40;;;3.50;87.00;;;;;;5022723;28;20499;-74
2022/12/03 10:02:52;;;;;;;9.77;8.88;;;3.60;86.00;;;;;;5022425;28;20584;-75
2022/12/03 10:05:21;;;;;;;8.80;7.90;;;3.60;86.10;;;;;;5004750;28;20444;-76
2022/12/03 10:07:48;;;;;;;10.30;9.18;;;3.50;86.30;;;;;;5001635;28;20449;-75
2022/12/03 10:10:17;;;;;;;9.27;8.00;;;3.50;86.60;;;;;;5005795;28;20460;-76
2022/12/03 10:12:44;;;;;;;9.30;8.30;;;3.60;85.80;;;;;;4999655;28;20434;-77
2022/12/03 10:15:13;;;;;;;10.20;9.10;;;3.60;85.70;;;;;;5005231;28;20437;-77
2022/12/03 10:17:41;;;;;;;9.27;8.27;;;3.70;85.30;;;;;;4994356;28;20448;-76
2022/12/03 10:20:12;;;;;;;9.50;8.00;;;3.70;84.60;;;;;;5002012;28;20531;-76
2022/12/03 10:22:39;;;;;;;9.02;8.13;;;3.60;84.50;;;;;;5004022;28;20494;-77
2022/12/03 10:25:23;;;;;;;9.40;8.40;;;3.60;85.20;;;;;;4984748;28;20426;-77
2022/12/03 10:27:58;;;;;;;8.90;8.00;;;3.60;85.50;;;;;;5000749;28;20894;-76
2022/12/03 10:30:27;;;;;;;8.60;7.70;;;3.60;85.60;;;;;;5000255;28;20600;-76
2022/12/03 10:32:55;;;;;;;9.25;7.93;;;3.70;84.80;;;;;;5000534;28;20518;-76
2022/12/03 10:35:25;;;;;;;9.60;8.65;;;3.80;83.80;;;;;;4995511;28;20447;-76
2022/12/03 10:38:02;;;;;;;9.23;8.30;;;3.80;83.90;;;;;;4990983;28;20446;-77
2022/12/03 10:40:30;;;;;;;9.45;8.27;;;3.70;84.30;;;;;;4995717;28;20589;-76
2022/12/03 10:43:15;;;;;;;15.57;13.00;;;3.80;84.00;;;;;;5002323;28;20446;-76
2022/12/03 10:45:42;;;;;;;11.53;10.33;;;3.80;83.00;;;;;;4993775;28;20483;-76
2022/12/03 10:48:15;;;;;;;9.30;8.40;;;3.80;82.40;;;;;;4996317;28;20440;-76
2022/12/03 10:50:50;;;;;;;9.98;9.00;;;3.80;82.70;;;;;;4994430;28;21044;-76
2022/12/03 10:53:17;;;;;;;9.05;8.07;;;3.70;83.50;;;;;;5004171;28;20434;-76
2022/12/03 10:55:45;;;;;;;10.18;8.27;;;3.70;83.20;;;;;;5000001;28;20442;-76
2022/12/03 10:58:20;;;;;;;9.50;8.60;;;3.70;84.50;;;;;;4993251;28;20462;-75
2022/12/03 11:00:47;;;;;;;8.88;7.97;;;3.80;83.80;;;;;;4996263;28;20439;-74
2022/12/03 11:03:19;;;;;;;8.80;7.82;;;3.80;83.20;;;;;;5014887;28;20428;-75
2022/12/03 11:05:47;;;;;;;9.30;8.40;;;3.80;83.30;;;;;;5019665;28;20444;-74
2022/12/03 11:08:20;;;;;;;10.02;9.02;;;3.80;83.20;;;;;;5012741;28;20440;-74
2022/12/03 11:10:56;;;;;;;8.90;8.00;;;3.80;82.70;;;;;;5011691;28;20484;-74
2022/12/03 11:13:48;;;;;;;9.50;8.60;;;3.80;83.40;;;;;;5020680;28;20439;-74
2022/12/03 11:17:08;;;;;;;9.75;8.82;;;3.80;83.10;;;;;;5005831;28;20437;-74
2022/12/03 11:19:47;;;;;;;10.27;9.27;;;3.80;83.00;;;;;;4996952;28;20517;-74
2022/12/03 11:22:26;;;;;;;11.10;9.50;;;3.80;82.60;;;;;;4994196;28;20440;-74
2022/12/03 11:25:26;;;;;;;10.20;9.20;;;3.80;83.00;;;;;;5002838;28;20447;-75
2022/12/03 11:28:25;;;;;;;10.05;9.05;;;3.90;83.40;;;;;;4994540;28;20521;-74
2022/12/03 11:31:01;;;;;;;10.25;9.15;;;3.90;82.80;;;;;;5000313;28;20430;-74
2022/12/03 11:33:29;;;;;;;10.30;9.30;;;3.90;83.20;;;;;;4999762;28;20445;-74
2022/12/03 11:36:12;;;;;;;11.55;10.35;;;3.90;83.10;;;;;;4994741;28;20442;-74
2022/12/03 11:39:01;;;;;;;10.50;9.50;;;4.00;83.00;;;;;;4998745;28;21033;-74
2022/12/03 11:41:33;;;;;;;10.63;9.52;;;4.00;82.60;;;;;;4993375;28;20434;-73
2022/12/03 11:44:17;;;;;;;10.60;9.60;;;4.00;81.40;;;;;;5003992;28;20454;-73
2022/12/03 11:46:46;;;;;;;10.30;9.30;;;4.10;80.70;;;;;;4993043;28;20435;-74
2022/12/03 11:49:42;;;;;;;10.95;9.85;;;4.00;81.50;;;;;;4996143;28;20546;-73
2022/12/03 11:52:23;;;;;;;10.52;9.52;;;4.00;81.50;;;;;;5004805;28;20440;-73
2022/12/03 11:54:54;;;;;;;10.80;9.70;;;3.90;82.00;;;;;;5000287;28;20474;-73
2022/12/03 11:57:32;;;;;;;10.10;9.10;;;3.90;82.10;;;;;;5002991;28;20436;-74
2022/12/03 12:00:01;;;;;;;10.00;9.10;;;3.90;82.60;;;;;;5001569;28;20456;-74
2022/12/03 12:02:28;;;;;;;10.55;9.45;;;3.90;82.50;;;;;;4996817;28;20589;-73
2022/12/03 12:04:55;;;;;;;11.40;10.30;;;3.90;82.80;;;;;;4997868;28;20434;-74
2022/12/03 12:07:34;;;;;;;11.57;10.10;;;3.90;82.50;;;;;;4995933;28;20463;-74
2022/12/03 12:10:03;;;;;;;11.10;10.00;;;4.00;82.50;;;;;;4999109;28;20527;-73
2022/12/03 12:12:36;;;;;;;11.20;10.10;;;4.00;82.60;;;;;;4997935;28;20458;-74
2022/12/03 12:15:48;;;;;;;11.85;10.65;;;4.00;82.50;;;;;;4988156;28;20447;-74
2022/12/03 12:18:37;;;;;;;11.70;10.60;;;4.00;82.60;;;;;;4986835;28;20434;-74
2022/12/03 12:21:39;;;;;;;11.47;10.27;;;4.10;82.30;;;;;;4999908;28;20433;-77
2022/12/03 12:24:34;;;;;;;11.20;10.10;;;4.10;80.40;;;;;;5003549;28;20820;-77
2022/12/03 12:27:04;;;;;;;12.35;11.05;;;4.00;80.40;;;;;;4999876;28;20448;-74
2022/12/03 12:29:31;;;;;;;11.93;10.70;;;4.00;80.90;;;;;;5022250;28;20440;-73
2022/12/03 12:32:02;;;;;;;13.20;11.82;;;4.00;80.80;;;;;;5017407;28;20445;-73
2022/12/03 12:34:32;;;;;;;13.77;12.38;;;4.00;81.50;;;;;;5013002;28;20424;-77
2022/12/03 12:37:00;;;;;;;13.15;11.68;;;4.00;82.40;;;;;;5008820;28;20443;-76
2022/12/03 12:39:27;;;;;;;12.70;11.50;;;4.00;82.70;;;;;;4999527;28;20494;-75
2022/12/03 12:41:54;;;;;;;12.02;10.82;;;4.10;82.10;;;;;;4999561;28;20444;-76
2022/12/03 12:44:25;;;;;;;13.02;11.73;;;4.10;81.60;;;;;;5017032;28;20930;-76
2022/12/03 12:46:52;;;;;;;11.25;10.10;;;4.00;81.70;;;;;;5001429;28;20511;-77
2022/12/03 12:49:25;;;;;;;11.30;10.20;;;4.00;82.30;;;;;;5004698;28;20441;-77
2022/12/03 12:51:54;;;;;;;12.80;11.40;;;4.10;81.90;;;;;;5004679;28;20536;-77
2022/12/03 12:54:21;;;;;;;12.43;11.30;;;4.00;81.80;;;;;;5005792;28;21258;-76
2022/12/03 12:56:49;;;;;;;12.57;11.27;;;4.00;82.20;;;;;;5013330;28;20435;-76
2022/12/03 12:59:18;;;;;;;13.20;11.90;;;4.10;81.70;;;;;;5008468;28;20440;-77
2022/12/03 13:01:47;;;;;;;12.20;11.00;;;4.10;80.90;;;;;;4999356;28;20433;-76
2022/12/03 13:04:15;;;;;;;12.70;11.25;;;4.10;81.00;;;;;;5014226;28;20424;-77
2022/12/03 13:06:43;;;;;;;13.40;12.00;;;4.10;80.30;;;;;;4999631;28;20464;-78
2022/12/03 13:09:15;;;;;;;12.65;11.40;;;4.10;79.80;;;;;;5004486;28;20452;-78
2022/12/03 13:11:44;;;;;;;12.68;11.38;;;4.10;80.30;;;;;;5008223;28;20463;-77
2022/12/03 13:14:16;;;;;;;12.60;11.27;;;4.00;80.30;;;;;;4993717;28;20484;-75
2022/12/03 13:16:43;;;;;;;12.50;11.20;;;4.00;80.50;;;;;;4995271;28;20436;-77
2022/12/03 13:19:19;;;;;;;13.20;11.80;;;3.90;80.80;;;;;;4997118;28;20589;-77
2022/12/03 13:21:46;;;;;;;13.25;11.95;;;4.00;81.10;;;;;;5004854;28;20440;-79
2022/12/03 13:24:32;;;;;;;13.53;12.23;;;4.00;81.20;;;;;;4993208;28;20439;-75
2022/12/03 13:26:59;;;;;;;14.45;12.95;;;3.90;81.60;;;;;;5001743;28;21045;-77